sensor_id;sensor_type;location;lat;lon;timestamp;P1;durP1;ratioP1;P2;durP2;ratioP2
11535;SDS011;5824;49.336;8.652;2023-04-24T00:02:18;2.20;;;1.20;;
11535;SDS011;5824;49.336;8.652;2023-04-24T00:33:12;3.60;;;1.63;;
11535;SDS011;5824;49.336;8.652;2023-04-24T00:35:38;1.60;;;1.20;;
11535;SDS011;5824;49.336;8.652;2023-04-24T00:38:04;1.37;;;1.20;;
11535;SDS011;5824;49.336;8.652;2023-04-24T00:40:29;4.53;;;1.43;;
11535;SDS011;5824;49.336;8.652;2023-04-24T01:06:14;3.43;;;1.10;;
11535;SDS011;5824;49.336;8.652;2023-04-24T01:16:26;2.80;;;1.40;;
11535;SDS011;5824;49.336;8.652;2023-04-24T01:29:19;3.17;;;1.50;;
11535;SDS011;5824;49.336;8.652;2023-04-24T01:31:45;1.43;;;1.17;;
11535;SDS011;5824;49.336;8.652;2023-04-24T01:34:10;2.53;;;1.33;;
11535;SDS011;5824;49.336;8.652;2023-04-24T01:36:36;4.67;;;1.70;;
11535;SDS011;5824;49.336;8.652;2023-04-24T02:30:50;2.90;;;1.43;;
11535;SDS011;5824;49.336;8.652;2023-04-24T02:33:15;3.70;;;1.50;;
11535;SDS011;5824;49.336;8.652;2023-04-24T02:38:17;2.33;;;1.50;;
11535;SDS011;5824;49.336;8.652;2023-04-24T02:56:14;2.67;;;1.50;;
11535;SDS011;5824;49.336;8.652;2023-04-24T02:58:41;3.93;;;1.50;;
11535;SDS011;5824;49.336;8.652;2023-04-24T03:06:18;6.93;;;1.57;;
11535;SDS011;5824;49.336;8.652;2023-04-24T03:11:18;4.13;;;1.77;;
11535;SDS011;5824;49.336;8.652;2023-04-24T03:13:44;1.77;;;1.20;;
11535;SDS011;5824;49.336;8.652;2023-04-24T03:16:10;2.63;;;1.67;;
11535;SDS011;5824;49.336;8.652;2023-04-24T03:18:35;3.17;;;2.03;;
11535;SDS011;5824;49.336;8.652;2023-04-24T03:28:47;2.63;;;2.40;;
11535;SDS011;5824;49.336;8.652;2023-04-24T03:38:55;4.70;;;2.00;;
11535;SDS011;5824;49.336;8.652;2023-04-24T03:41:21;4.63;;;2.00;;
11535;SDS011;5824;49.336;8.652;2023-04-24T03:43:47;2.60;;;1.97;;
11535;SDS011;5824;49.336;8.652;2023-04-24T03:46:13;3.60;;;2.20;;
11535;SDS011;5824;49.336;8.652;2023-04-24T03:48:38;2.50;;;2.10;;
11535;SDS011;5824;49.336;8.652;2023-04-24T03:56:14;2.57;;;2.03;;
11535;SDS011;5824;49.336;8.652;2023-04-24T04:29:44;2.90;;;2.63;;
11535;SDS011;5824;49.336;8.652;2023-04-24T04:42:32;4.37;;;2.30;;
11535;SDS011;5824;49.336;8.652;2023-04-24T05:00:31;3.67;;;2.43;;
11535;SDS011;5824;49.336;8.652;2023-04-24T05:03:00;3.50;;;2.60;;
11535;SDS011;5824;49.336;8.652;2023-04-24T05:05:26;3.50;;;2.40;;
11535;SDS011;5824;49.336;8.652;2023-04-24T05:07:52;3.33;;;3.03;;
11535;SDS011;5824;49.336;8.652;2023-04-24T05:10:17;4.57;;;2.80;;
11535;SDS011;5824;49.336;8.652;2023-04-24T05:12:43;4.00;;;3.23;;
11535;SDS011;5824;49.336;8.652;2023-04-24T05:15:08;4.77;;;3.07;;
11535;SDS011;5824;49.336;8.652;2023-04-24T05:17:34;3.13;;;2.80;;
11535;SDS011;5824;49.336;8.652;2023-04-24T05:20:00;4.97;;;3.23;;
11535;SDS011;5824;49.336;8.652;2023-04-24T05:22:26;4.93;;;3.00;;
11535;SDS011;5824;49.336;8.652;2023-04-24T05:24:51;3.27;;;2.80;;
11535;SDS011;5824;49.336;8.652;2023-04-24T05:27:18;3.57;;;3.27;;
11535;SDS011;5824;49.336;8.652;2023-04-24T05:29:43;4.73;;;3.27;;
11535;SDS011;5824;49.336;8.652;2023-04-24T05:32:09;5.40;;;3.20;;
11535;SDS011;5824;49.336;8.652;2023-04-24T05:34:35;4.87;;;3.10;;
11535;SDS011;5824;49.336;8.652;2023-04-24T05:37:01;3.80;;;3.50;;
11535;SDS011;5824;49.336;8.652;2023-04-24T05:39:26;3.80;;;3.40;;
11535;SDS011;5824;49.336;8.652;2023-04-24T05:41:52;4.23;;;3.13;;
11535;SDS011;5824;49.336;8.652;2023-04-24T05:44:17;4.13;;;3.20;;
11535;SDS011;5824;49.336;8.652;2023-04-24T05:46:43;5.80;;;3.60;;
11535;SDS011;5824;49.336;8.652;2023-04-24T05:49:08;5.73;;;3.57;;
11535;SDS011;5824;49.336;8.652;2023-04-24T05:51:34;3.90;;;3.40;;
11535;SDS011;5824;49.336;8.652;2023-04-24T05:54:00;6.33;;;3.50;;
11535;SDS011;5824;49.336;8.652;2023-04-24T05:56:26;5.47;;;3.53;;
11535;SDS011;5824;49.336;8.652;2023-04-24T05:58:52;3.57;;;3.27;;
11535;SDS011;5824;49.336;8.652;2023-04-24T06:01:17;4.90;;;3.77;;
11535;SDS011;5824;49.336;8.652;2023-04-24T06:03:43;5.23;;;3.80;;
11535;SDS011;5824;49.336;8.652;2023-04-24T06:06:08;3.87;;;3.27;;
11535;SDS011;5824;49.336;8.652;2023-04-24T06:08:34;4.60;;;3.50;;
11535;SDS011;5824;49.336;8.652;2023-04-24T06:11:00;3.80;;;3.20;;
11535;SDS011;5824;49.336;8.652;2023-04-24T06:13:26;5.80;;;3.40;;
11535;SDS011;5824;49.336;8.652;2023-04-24T06:15:52;4.23;;;3.67;;
11535;SDS011;5824;49.336;8.652;2023-04-24T06:18:17;4.37;;;3.27;;
11535;SDS011;5824;49.336;8.652;2023-04-24T06:20:43;8.30;;;3.60;;
11535;SDS011;5824;49.336;8.652;2023-04-24T06:23:08;4.23;;;3.73;;
11535;SDS011;5824;49.336;8.652;2023-04-24T06:25:34;4.07;;;3.20;;
11535;SDS011;5824;49.336;8.652;2023-04-24T06:27:59;4.43;;;3.67;;
11535;SDS011;5824;49.336;8.652;2023-04-24T06:30:26;4.00;;;3.60;;
11535;SDS011;5824;49.336;8.652;2023-04-24T06:32:53;4.00;;;3.27;;
11535;SDS011;5824;49.336;8.652;2023-04-24T06:35:18;3.90;;;3.10;;
11535;SDS011;5824;49.336;8.652;2023-04-24T06:37:44;3.57;;;3.27;;
11535;SDS011;5824;49.336;8.652;2023-04-24T06:40:10;4.40;;;3.40;;
11535;SDS011;5824;49.336;8.652;2023-04-24T06:42:36;3.60;;;2.70;;
11535;SDS011;5824;49.336;8.652;2023-04-24T06:45:01;5.33;;;3.40;;
11535;SDS011;5824;49.336;8.652;2023-04-24T06:47:28;3.17;;;2.87;;
11535;SDS011;5824;49.336;8.652;2023-04-24T06:49:53;4.27;;;2.90;;
11535;SDS011;5824;49.336;8.652;2023-04-24T06:52:20;3.60;;;2.73;;
11535;SDS011;5824;49.336;8.652;2023-04-24T06:54:45;4.20;;;2.70;;
11535;SDS011;5824;49.336;8.652;2023-04-24T06:57:11;2.23;;;2.03;;
11535;SDS011;5824;49.336;8.652;2023-04-24T06:59:36;3.50;;;2.67;;
11535;SDS011;5824;49.336;8.652;2023-04-24T07:02:02;7.93;;;2.67;;
11535;SDS011;5824;49.336;8.652;2023-04-24T07:04:28;5.73;;;2.37;;
11535;SDS011;5824;49.336;8.652;2023-04-24T07:06:55;4.83;;;3.10;;
11535;SDS011;5824;49.336;8.652;2023-04-24T07:09:21;2.87;;;2.60;;
11535;SDS011;5824;49.336;8.652;2023-04-24T07:11:48;2.40;;;2.20;;
11535;SDS011;5824;49.336;8.652;2023-04-24T07:14:14;6.23;;;2.60;;
11535;SDS011;5824;49.336;8.652;2023-04-24T07:16:40;3.80;;;2.20;;
11535;SDS011;5824;49.336;8.652;2023-04-24T07:19:06;6.63;;;2.47;;
11535;SDS011;5824;49.336;8.652;2023-04-24T07:21:32;3.03;;;2.67;;
11535;SDS011;5824;49.336;8.652;2023-04-24T07:23:58;3.30;;;2.93;;
11535;SDS011;5824;49.336;8.652;2023-04-24T07:26:23;2.70;;;2.50;;
11535;SDS011;5824;49.336;8.652;2023-04-24T07:28:50;2.90;;;2.57;;
11535;SDS011;5824;49.336;8.652;2023-04-24T07:31:15;2.73;;;2.53;;
11535;SDS011;5824;49.336;8.652;2023-04-24T07:33:40;2.53;;;2.33;;
11535;SDS011;5824;49.336;8.652;2023-04-24T07:36:06;2.93;;;2.63;;
11535;SDS011;5824;49.336;8.652;2023-04-24T07:38:32;3.63;;;2.60;;
11535;SDS011;5824;49.336;8.652;2023-04-24T07:40:57;3.57;;;2.63;;
11535;SDS011;5824;49.336;8.652;2023-04-24T07:43:23;2.63;;;2.30;;
11535;SDS011;5824;49.336;8.652;2023-04-24T07:45:52;2.60;;;2.40;;
11535;SDS011;5824;49.336;8.652;2023-04-24T07:48:17;3.03;;;2.63;;
11535;SDS011;5824;49.336;8.652;2023-04-24T07:50:44;2.53;;;2.33;;
11535;SDS011;5824;49.336;8.652;2023-04-24T07:53:10;2.80;;;2.50;;
11535;SDS011;5824;49.336;8.652;2023-04-24T07:55:35;3.10;;;2.63;;
11535;SDS011;5824;49.336;8.652;2023-04-24T07:58:01;2.73;;;2.53;;
11535;SDS011;5824;49.336;8.652;2023-04-24T08:00:27;2.70;;;2.40;;
11535;SDS011;5824;49.336;8.652;2023-04-24T08:02:52;3.60;;;2.40;;
11535;SDS011;5824;49.336;8.652;2023-04-24T08:05:18;2.70;;;2.30;;
11535;SDS011;5824;49.336;8.652;2023-04-24T08:07:43;2.77;;;2.40;;
11535;SDS011;5824;49.336;8.652;2023-04-24T08:10:11;3.30;;;2.57;;
11535;SDS011;5824;49.336;8.652;2023-04-24T08:12:37;4.53;;;2.90;;
11535;SDS011;5824;49.336;8.652;2023-04-24T08:15:03;4.63;;;3.07;;
11535;SDS011;5824;49.336;8.652;2023-04-24T08:17:29;3.57;;;2.53;;
11535;SDS011;5824;49.336;8.652;2023-04-24T08:19:55;3.30;;;2.60;;
11535;SDS011;5824;49.336;8.652;2023-04-24T08:22:26;4.00;;;2.30;;
11535;SDS011;5824;49.336;8.652;2023-04-24T08:24:52;4.63;;;2.87;;
11535;SDS011;5824;49.336;8.652;2023-04-24T08:27:18;3.70;;;2.73;;
11535;SDS011;5824;49.336;8.652;2023-04-24T08:29:43;3.47;;;2.70;;
11535;SDS011;5824;49.336;8.652;2023-04-24T08:32:09;5.00;;;2.70;;
11535;SDS011;5824;49.336;8.652;2023-04-24T08:34:35;3.47;;;3.00;;
11535;SDS011;5824;49.336;8.652;2023-04-24T08:37:00;3.80;;;2.83;;
11535;SDS011;5824;49.336;8.652;2023-04-24T08:39:26;2.80;;;2.50;;
11535;SDS011;5824;49.336;8.652;2023-04-24T08:41:52;3.13;;;2.47;;
11535;SDS011;5824;49.336;8.652;2023-04-24T08:44:18;3.23;;;2.20;;
11535;SDS011;5824;49.336;8.652;2023-04-24T08:46:45;2.17;;;1.93;;
11535;SDS011;5824;49.336;8.652;2023-04-24T08:49:13;3.40;;;2.63;;
11535;SDS011;5824;49.336;8.652;2023-04-24T08:51:41;5.80;;;1.93;;
11535;SDS011;5824;49.336;8.652;2023-04-24T08:54:07;2.90;;;2.20;;
11535;SDS011;5824;49.336;8.652;2023-04-24T08:56:33;2.37;;;2.17;;
11535;SDS011;5824;49.336;8.652;2023-04-24T08:58:59;2.10;;;1.90;;
11535;SDS011;5824;49.336;8.652;2023-04-24T09:01:24;2.10;;;1.90;;
11535;SDS011;5824;49.336;8.652;2023-04-24T09:03:51;4.60;;;2.40;;
11535;SDS011;5824;49.336;8.652;2023-04-24T09:06:19;3.23;;;2.30;;
11535;SDS011;5824;49.336;8.652;2023-04-24T09:08:48;3.60;;;2.30;;
11535;SDS011;5824;49.336;8.652;2023-04-24T09:11:17;3.10;;;2.40;;
11535;SDS011;5824;49.336;8.652;2023-04-24T09:13:43;4.47;;;2.60;;
11535;SDS011;5824;49.336;8.652;2023-04-24T09:16:09;4.00;;;2.40;;
11535;SDS011;5824;49.336;8.652;2023-04-24T09:18:34;4.03;;;2.77;;
11535;SDS011;5824;49.336;8.652;2023-04-24T09:21:06;3.00;;;2.60;;
11535;SDS011;5824;49.336;8.652;2023-04-24T09:23:33;2.53;;;2.23;;
11535;SDS011;5824;49.336;8.652;2023-04-24T09:25:58;2.80;;;2.30;;
11535;SDS011;5824;49.336;8.652;2023-04-24T09:28:27;2.97;;;1.80;;
11535;SDS011;5824;49.336;8.652;2023-04-24T09:31:12;3.50;;;2.53;;
11535;SDS011;5824;49.336;8.652;2023-04-24T09:33:40;6.30;;;2.50;;
11535;SDS011;5824;49.336;8.652;2023-04-24T09:36:35;3.30;;;2.07;;
11535;SDS011;5824;49.336;8.652;2023-04-24T09:39:12;2.10;;;1.70;;
11535;SDS011;5824;49.336;8.652;2023-04-24T09:41:50;4.93;;;1.87;;
11535;SDS011;5824;49.336;8.652;2023-04-24T09:44:20;2.33;;;2.07;;
11535;SDS011;5824;49.336;8.652;2023-04-24T09:46:58;5.30;;;2.43;;
11535;SDS011;5824;49.336;8.652;2023-04-24T09:49:25;3.63;;;2.70;;
11535;SDS011;5824;49.336;8.652;2023-04-24T09:51:52;2.70;;;2.50;;
11535;SDS011;5824;49.336;8.652;2023-04-24T09:54:28;5.03;;;2.40;;
11535;SDS011;5824;49.336;8.652;2023-04-24T09:56:54;3.13;;;1.97;;
11535;SDS011;5824;49.336;8.652;2023-04-24T09:59:21;4.67;;;2.30;;
11535;SDS011;5824;49.336;8.652;2023-04-24T10:01:47;2.67;;;2.23;;
11535;SDS011;5824;49.336;8.652;2023-04-24T10:04:21;2.50;;;2.03;;
11535;SDS011;5824;49.336;8.652;2023-04-24T10:06:49;3.60;;;2.10;;
11535;SDS011;5824;49.336;8.652;2023-04-24T10:09:16;3.43;;;2.90;;
11535;SDS011;5824;49.336;8.652;2023-04-24T10:11:42;3.50;;;2.70;;
11535;SDS011;5824;49.336;8.652;2023-04-24T10:14:14;3.23;;;2.53;;
11535;SDS011;5824;49.336;8.652;2023-04-24T10:16:40;4.40;;;2.67;;
11535;SDS011;5824;49.336;8.652;2023-04-24T10:19:07;3.73;;;3.10;;
11535;SDS011;5824;49.336;8.652;2023-04-24T10:21:33;3.53;;;3.20;;
11535;SDS011;5824;49.336;8.652;2023-04-24T10:24:00;15.73;;;10.97;;
11535;SDS011;5824;49.336;8.652;2023-04-24T10:26:28;6.97;;;5.83;;
11535;SDS011;5824;49.336;8.652;2023-04-24T10:28:54;4.47;;;3.27;;
11535;SDS011;5824;49.336;8.652;2023-04-24T10:31:22;3.43;;;2.77;;
11535;SDS011;5824;49.336;8.652;2023-04-24T10:33:48;8.10;;;3.70;;
11535;SDS011;5824;49.336;8.652;2023-04-24T10:36:16;5.50;;;3.30;;
11535;SDS011;5824;49.336;8.652;2023-04-24T10:38:42;4.97;;;3.50;;
11535;SDS011;5824;49.336;8.652;2023-04-24T10:41:11;5.10;;;2.60;;
11535;SDS011;5824;49.336;8.652;2023-04-24T10:43:48;5.10;;;2.70;;
11535;SDS011;5824;49.336;8.652;2023-04-24T10:46:29;3.27;;;2.97;;
11535;SDS011;5824;49.336;8.652;2023-04-24T10:48:56;4.67;;;2.87;;
11535;SDS011;5824;49.336;8.652;2023-04-24T10:51:23;3.40;;;3.07;;
11535;SDS011;5824;49.336;8.652;2023-04-24T10:53:51;3.80;;;2.90;;
11535;SDS011;5824;49.336;8.652;2023-04-24T10:56:16;3.40;;;2.90;;
11535;SDS011;5824;49.336;8.652;2023-04-24T10:58:49;4.10;;;3.30;;
11535;SDS011;5824;49.336;8.652;2023-04-24T11:01:24;4.67;;;2.60;;
11535;SDS011;5824;49.336;8.652;2023-04-24T11:03:53;3.27;;;2.93;;
11535;SDS011;5824;49.336;8.652;2023-04-24T11:06:27;4.43;;;3.00;;
11535;SDS011;5824;49.336;8.652;2023-04-24T11:08:58;4.30;;;3.00;;
11535;SDS011;5824;49.336;8.652;2023-04-24T11:11:31;3.97;;;3.00;;
11535;SDS011;5824;49.336;8.652;2023-04-24T11:18:51;6.10;;;3.77;;
11535;SDS011;5824;49.336;8.652;2023-04-24T11:21:24;4.40;;;3.87;;
11535;SDS011;5824;49.336;8.652;2023-04-24T11:23:51;4.63;;;3.73;;
11535;SDS011;5824;49.336;8.652;2023-04-24T11:26:18;6.60;;;3.97;;
11535;SDS011;5824;49.336;8.652;2023-04-24T11:28:46;4.33;;;3.50;;
11535;SDS011;5824;49.336;8.652;2023-04-24T11:34:13;3.60;;;3.30;;
11535;SDS011;5824;49.336;8.652;2023-04-24T11:36:40;4.03;;;3.13;;
11535;SDS011;5824;49.336;8.652;2023-04-24T11:39:08;3.40;;;3.00;;
11535;SDS011;5824;49.336;8.652;2023-04-24T11:41:35;5.57;;;3.30;;
11535;SDS011;5824;49.336;8.652;2023-04-24T11:44:01;5.10;;;3.30;;
11535;SDS011;5824;49.336;8.652;2023-04-24T11:46:28;3.97;;;3.57;;
11535;SDS011;5824;49.336;8.652;2023-04-24T11:48:55;4.30;;;3.10;;
11535;SDS011;5824;49.336;8.652;2023-04-24T11:51:25;3.80;;;3.47;;
11535;SDS011;5824;49.336;8.652;2023-04-24T11:53:55;4.20;;;3.40;;
11535;SDS011;5824;49.336;8.652;2023-04-24T11:56:21;3.90;;;3.30;;
11535;SDS011;5824;49.336;8.652;2023-04-24T11:58:47;5.13;;;3.70;;
11535;SDS011;5824;49.336;8.652;2023-04-24T12:01:13;8.70;;;3.50;;
11535;SDS011;5824;49.336;8.652;2023-04-24T12:03:39;4.47;;;3.77;;
11535;SDS011;5824;49.336;8.652;2023-04-24T12:06:08;4.20;;;3.80;;
11535;SDS011;5824;49.336;8.652;2023-04-24T12:08:34;6.13;;;3.80;;
11535;SDS011;5824;49.336;8.652;2023-04-24T12:11:01;4.40;;;3.30;;
11535;SDS011;5824;49.336;8.652;2023-04-24T12:13:27;6.70;;;4.40;;
11535;SDS011;5824;49.336;8.652;2023-04-24T12:15:53;6.13;;;3.67;;
11535;SDS011;5824;49.336;8.652;2023-04-24T12:18:18;3.53;;;3.23;;
11535;SDS011;5824;49.336;8.652;2023-04-24T12:20:47;5.97;;;3.50;;
11535;SDS011;5824;49.336;8.652;2023-04-24T12:23:13;5.50;;;3.20;;
11535;SDS011;5824;49.336;8.652;2023-04-24T12:25:39;5.30;;;3.73;;
11535;SDS011;5824;49.336;8.652;2023-04-24T12:30:32;6.60;;;3.70;;
11535;SDS011;5824;49.336;8.652;2023-04-24T12:33:05;4.70;;;3.40;;
11535;SDS011;5824;49.336;8.652;2023-04-24T12:35:31;5.70;;;3.20;;
11535;SDS011;5824;49.336;8.652;2023-04-24T12:38:11;4.17;;;3.10;;
11535;SDS011;5824;49.336;8.652;2023-04-24T12:40:39;6.50;;;3.47;;
11535;SDS011;5824;49.336;8.652;2023-04-24T12:43:16;4.13;;;3.40;;
11535;SDS011;5824;49.336;8.652;2023-04-24T12:45:42;3.63;;;3.33;;
11535;SDS011;5824;49.336;8.652;2023-04-24T12:48:09;3.70;;;3.23;;
11535;SDS011;5824;49.336;8.652;2023-04-24T12:50:35;5.00;;;3.20;;
11535;SDS011;5824;49.336;8.652;2023-04-24T12:53:00;4.47;;;3.53;;
11535;SDS011;5824;49.336;8.652;2023-04-24T12:55:26;8.10;;;4.00;;
11535;SDS011;5824;49.336;8.652;2023-04-24T12:57:51;4.40;;;3.57;;
11535;SDS011;5824;49.336;8.652;2023-04-24T13:00:20;5.40;;;4.10;;
11535;SDS011;5824;49.336;8.652;2023-04-24T13:02:45;5.00;;;3.53;;
11535;SDS011;5824;49.336;8.652;2023-04-24T13:05:11;7.37;;;4.30;;
11535;SDS011;5824;49.336;8.652;2023-04-24T13:07:38;7.37;;;3.93;;
11535;SDS011;5824;49.336;8.652;2023-04-24T13:10:04;5.07;;;4.30;;
11535;SDS011;5824;49.336;8.652;2023-04-24T13:12:31;5.10;;;4.13;;
11535;SDS011;5824;49.336;8.652;2023-04-24T13:14:57;5.93;;;4.50;;
11535;SDS011;5824;49.336;8.652;2023-04-24T13:17:23;6.47;;;4.60;;
11535;SDS011;5824;49.336;8.652;2023-04-24T13:19:49;6.23;;;4.60;;
11535;SDS011;5824;49.336;8.652;2023-04-24T13:22:16;5.20;;;4.60;;
11535;SDS011;5824;49.336;8.652;2023-04-24T13:24:43;10.00;;;5.00;;
11535;SDS011;5824;49.336;8.652;2023-04-24T13:27:09;6.73;;;5.10;;
11535;SDS011;5824;49.336;8.652;2023-04-24T13:29:35;5.97;;;4.33;;
11535;SDS011;5824;49.336;8.652;2023-04-24T13:32:02;7.00;;;4.57;;
11535;SDS011;5824;49.336;8.652;2023-04-24T13:34:27;5.03;;;3.77;;
11535;SDS011;5824;49.336;8.652;2023-04-24T13:36:54;8.30;;;4.10;;
11535;SDS011;5824;49.336;8.652;2023-04-24T13:39:21;6.60;;;3.73;;
11535;SDS011;5824;49.336;8.652;2023-04-24T13:41:47;5.47;;;4.23;;
11535;SDS011;5824;49.336;8.652;2023-04-24T13:44:17;5.70;;;4.97;;
11535;SDS011;5824;49.336;8.652;2023-04-24T13:46:44;5.50;;;4.10;;
11535;SDS011;5824;49.336;8.652;2023-04-24T13:49:11;6.73;;;4.70;;
11535;SDS011;5824;49.336;8.652;2023-04-24T13:51:37;6.77;;;4.80;;
11535;SDS011;5824;49.336;8.652;2023-04-24T13:54:03;6.93;;;4.50;;
11535;SDS011;5824;49.336;8.652;2023-04-24T13:56:29;6.20;;;4.37;;
11535;SDS011;5824;49.336;8.652;2023-04-24T13:58:55;5.73;;;4.20;;
11535;SDS011;5824;49.336;8.652;2023-04-24T14:01:21;7.03;;;3.70;;
11535;SDS011;5824;49.336;8.652;2023-04-24T14:03:49;5.27;;;3.90;;
11535;SDS011;5824;49.336;8.652;2023-04-24T14:06:16;4.63;;;3.90;;
11535;SDS011;5824;49.336;8.652;2023-04-24T14:08:42;6.00;;;4.07;;
11535;SDS011;5824;49.336;8.652;2023-04-24T14:11:07;14.13;;;3.80;;
11535;SDS011;5824;49.336;8.652;2023-04-24T14:13:33;6.50;;;4.20;;
11535;SDS011;5824;49.336;8.652;2023-04-24T14:16:00;4.90;;;3.90;;
11535;SDS011;5824;49.336;8.652;2023-04-24T14:18:26;7.23;;;3.87;;
11535;SDS011;5824;49.336;8.652;2023-04-24T14:20:52;6.23;;;3.80;;
11535;SDS011;5824;49.336;8.652;2023-04-24T14:23:17;6.23;;;3.80;;
11535;SDS011;5824;49.336;8.652;2023-04-24T14:25:43;11.43;;;4.30;;
11535;SDS011;5824;49.336;8.652;2023-04-24T14:28:09;4.87;;;3.90;;
11535;SDS011;5824;49.336;8.652;2023-04-24T14:30:34;3.57;;;3.13;;
11535;SDS011;5824;49.336;8.652;2023-04-24T14:33:02;5.23;;;3.20;;
11535;SDS011;5824;49.336;8.652;2023-04-24T14:35:28;4.33;;;3.23;;
11535;SDS011;5824;49.336;8.652;2023-04-24T14:37:56;4.53;;;3.30;;
11535;SDS011;5824;49.336;8.652;2023-04-24T14:40:22;5.53;;;3.57;;
11535;SDS011;5824;49.336;8.652;2023-04-24T14:42:47;3.93;;;3.53;;
11535;SDS011;5824;49.336;8.652;2023-04-24T14:45:13;4.20;;;3.23;;
11535;SDS011;5824;49.336;8.652;2023-04-24T14:47:38;3.97;;;3.57;;
11535;SDS011;5824;49.336;8.652;2023-04-24T14:50:04;4.37;;;3.73;;
11535;SDS011;5824;49.336;8.652;2023-04-24T14:52:30;4.87;;;3.80;;
11535;SDS011;5824;49.336;8.652;2023-04-24T14:54:56;5.27;;;3.50;;
11535;SDS011;5824;49.336;8.652;2023-04-24T14:57:22;3.40;;;3.07;;
11535;SDS011;5824;49.336;8.652;2023-04-24T14:59:48;6.67;;;3.20;;
11535;SDS011;5824;49.336;8.652;2023-04-24T15:02:13;6.90;;;3.30;;
11535;SDS011;5824;49.336;8.652;2023-04-24T15:04:39;3.83;;;3.43;;
11535;SDS011;5824;49.336;8.652;2023-04-24T15:07:05;4.07;;;3.47;;
11535;SDS011;5824;49.336;8.652;2023-04-24T15:09:30;4.87;;;3.60;;
11535;SDS011;5824;49.336;8.652;2023-04-24T15:11:57;6.57;;;3.70;;
11535;SDS011;5824;49.336;8.652;2023-04-24T15:14:23;6.27;;;3.33;;
11535;SDS011;5824;49.336;8.652;2023-04-24T15:16:49;5.70;;;3.50;;
11535;SDS011;5824;49.336;8.652;2023-04-24T15:19:14;9.30;;;3.63;;
11535;SDS011;5824;49.336;8.652;2023-04-24T15:21:40;4.70;;;3.53;;
11535;SDS011;5824;49.336;8.652;2023-04-24T15:24:07;5.17;;;3.90;;
11535;SDS011;5824;49.336;8.652;2023-04-24T15:26:33;4.90;;;3.80;;
11535;SDS011;5824;49.336;8.652;2023-04-24T15:28:58;5.90;;;3.40;;
11535;SDS011;5824;49.336;8.652;2023-04-24T15:31:24;6.00;;;3.60;;
11535;SDS011;5824;49.336;8.652;2023-04-24T15:33:50;4.93;;;3.30;;
11535;SDS011;5824;49.336;8.652;2023-04-24T15:36:16;4.07;;;3.23;;
11535;SDS011;5824;49.336;8.652;2023-04-24T15:38:42;4.70;;;3.30;;
11535;SDS011;5824;49.336;8.652;2023-04-24T15:41:08;3.30;;;3.00;;
11535;SDS011;5824;49.336;8.652;2023-04-24T15:43:34;3.67;;;2.90;;
11535;SDS011;5824;49.336;8.652;2023-04-24T15:45:59;3.90;;;3.20;;
11535;SDS011;5824;49.336;8.652;2023-04-24T15:48:27;3.80;;;3.20;;
11535;SDS011;5824;49.336;8.652;2023-04-24T15:50:53;4.70;;;3.30;;
11535;SDS011;5824;49.336;8.652;2023-04-24T15:53:18;4.47;;;3.07;;
11535;SDS011;5824;49.336;8.652;2023-04-24T15:55:47;3.83;;;2.93;;
11535;SDS011;5824;49.336;8.652;2023-04-24T15:58:14;6.00;;;3.23;;
11535;SDS011;5824;49.336;8.652;2023-04-24T16:00:39;9.47;;;3.20;;
11535;SDS011;5824;49.336;8.652;2023-04-24T16:03:05;3.67;;;3.37;;
11535;SDS011;5824;49.336;8.652;2023-04-24T16:05:31;6.30;;;3.40;;
11535;SDS011;5824;49.336;8.652;2023-04-24T16:07:57;9.33;;;3.40;;
11535;SDS011;5824;49.336;8.652;2023-04-24T16:10:22;5.43;;;3.53;;
11535;SDS011;5824;49.336;8.652;2023-04-24T16:12:48;4.90;;;3.27;;
11535;SDS011;5824;49.336;8.652;2023-04-24T16:15:15;4.80;;;3.13;;
11535;SDS011;5824;49.336;8.652;2023-04-24T16:17:41;3.87;;;2.90;;
11535;SDS011;5824;49.336;8.652;2023-04-24T16:20:06;5.27;;;3.23;;
11535;SDS011;5824;49.336;8.652;2023-04-24T16:22:32;5.37;;;3.47;;
11535;SDS011;5824;49.336;8.652;2023-04-24T16:24:58;4.07;;;3.13;;
11535;SDS011;5824;49.336;8.652;2023-04-24T16:27:24;6.93;;;3.30;;
11535;SDS011;5824;49.336;8.652;2023-04-24T16:29:50;6.97;;;3.60;;
11535;SDS011;5824;49.336;8.652;2023-04-24T16:32:16;3.07;;;2.73;;
11535;SDS011;5824;49.336;8.652;2023-04-24T16:34:41;3.20;;;2.90;;
11535;SDS011;5824;49.336;8.652;2023-04-24T16:37:07;3.47;;;3.13;;
11535;SDS011;5824;49.336;8.652;2023-04-24T16:39:32;3.70;;;2.70;;
11535;SDS011;5824;49.336;8.652;2023-04-24T16:41:58;2.83;;;2.50;;
11535;SDS011;5824;49.336;8.652;2023-04-24T16:44:25;3.93;;;3.10;;
11535;SDS011;5824;49.336;8.652;2023-04-24T16:46:51;2.73;;;2.40;;
11535;SDS011;5824;49.336;8.652;2023-04-24T16:49:16;3.83;;;2.60;;
11535;SDS011;5824;49.336;8.652;2023-04-24T16:51:42;3.80;;;2.50;;
11535;SDS011;5824;49.336;8.652;2023-04-24T16:54:07;5.00;;;2.60;;
11535;SDS011;5824;49.336;8.652;2023-04-24T16:56:33;3.73;;;2.60;;
11535;SDS011;5824;49.336;8.652;2023-04-24T16:58:58;2.83;;;2.53;;
11535;SDS011;5824;49.336;8.652;2023-04-24T17:01:24;3.17;;;2.87;;
11535;SDS011;5824;49.336;8.652;2023-04-24T17:03:50;3.00;;;2.80;;
11535;SDS011;5824;49.336;8.652;2023-04-24T17:06:15;2.83;;;2.40;;
11535;SDS011;5824;49.336;8.652;2023-04-24T17:08:41;8.10;;;6.23;;
11535;SDS011;5824;49.336;8.652;2023-04-24T17:11:06;7.97;;;2.57;;
11535;SDS011;5824;49.336;8.652;2023-04-24T17:13:32;5.17;;;4.67;;
11535;SDS011;5824;49.336;8.652;2023-04-24T17:15:57;5.57;;;3.17;;
11535;SDS011;5824;49.336;8.652;2023-04-24T17:18:23;3.80;;;3.40;;
11535;SDS011;5824;49.336;8.652;2023-04-24T17:20:49;3.50;;;3.00;;
11535;SDS011;5824;49.336;8.652;2023-04-24T17:23:14;4.47;;;3.03;;
11535;SDS011;5824;49.336;8.652;2023-04-24T17:25:40;4.10;;;3.00;;
11535;SDS011;5824;49.336;8.652;2023-04-24T17:28:09;3.60;;;3.10;;
11535;SDS011;5824;49.336;8.652;2023-04-24T17:30:56;3.73;;;2.87;;
11535;SDS011;5824;49.336;8.652;2023-04-24T17:33:28;8.20;;;3.10;;
11535;SDS011;5824;49.336;8.652;2023-04-24T17:35:54;6.10;;;3.43;;
11535;SDS011;5824;49.336;8.652;2023-04-24T17:38:21;6.70;;;4.43;;
11535;SDS011;5824;49.336;8.652;2023-04-24T17:40:47;6.60;;;5.03;;
11535;SDS011;5824;49.336;8.652;2023-04-24T17:43:16;5.97;;;4.50;;
11535;SDS011;5824;49.336;8.652;2023-04-24T17:45:46;5.03;;;4.17;;
11535;SDS011;5824;49.336;8.652;2023-04-24T17:48:13;5.93;;;3.93;;
11535;SDS011;5824;49.336;8.652;2023-04-24T17:50:39;4.80;;;3.70;;
11535;SDS011;5824;49.336;8.652;2023-04-24T17:53:05;6.57;;;4.20;;
11535;SDS011;5824;49.336;8.652;2023-04-24T17:55:31;5.87;;;4.70;;
11535;SDS011;5824;49.336;8.652;2023-04-24T17:57:58;4.20;;;3.43;;
11535;SDS011;5824;49.336;8.652;2023-04-24T18:00:33;2.83;;;2.57;;
11535;SDS011;5824;49.336;8.652;2023-04-24T18:02:59;3.17;;;2.70;;
11535;SDS011;5824;49.336;8.652;2023-04-24T18:05:29;2.53;;;2.33;;
11535;SDS011;5824;49.336;8.652;2023-04-24T18:07:56;3.80;;;2.40;;
11535;SDS011;5824;49.336;8.652;2023-04-24T18:10:22;4.10;;;3.10;;
11535;SDS011;5824;49.336;8.652;2023-04-24T18:12:49;4.03;;;2.60;;
11535;SDS011;5824;49.336;8.652;2023-04-24T18:15:15;2.43;;;2.10;;
11535;SDS011;5824;49.336;8.652;2023-04-24T18:17:41;5.23;;;2.90;;
11535;SDS011;5824;49.336;8.652;2023-04-24T18:20:07;3.23;;;2.80;;
11535;SDS011;5824;49.336;8.652;2023-04-24T18:22:33;2.90;;;2.60;;
11535;SDS011;5824;49.336;8.652;2023-04-24T18:24:59;4.77;;;3.30;;
11535;SDS011;5824;49.336;8.652;2023-04-24T18:27:25;2.73;;;2.50;;
11535;SDS011;5824;49.336;8.652;2023-04-24T18:29:53;6.00;;;2.70;;
11535;SDS011;5824;49.336;8.652;2023-04-24T18:32:18;3.80;;;2.50;;
11535;SDS011;5824;49.336;8.652;2023-04-24T18:34:44;2.83;;;2.57;;
11535;SDS011;5824;49.336;8.652;2023-04-24T18:37:09;3.00;;;2.60;;
11535;SDS011;5824;49.336;8.652;2023-04-24T18:39:35;2.90;;;2.40;;
11535;SDS011;5824;49.336;8.652;2023-04-24T18:42:00;5.03;;;2.63;;
11535;SDS011;5824;49.336;8.652;2023-04-24T18:44:26;2.70;;;2.40;;
11535;SDS011;5824;49.336;8.652;2023-04-24T18:46:51;2.50;;;2.30;;
11535;SDS011;5824;49.336;8.652;2023-04-24T18:49:17;3.03;;;2.30;;
11535;SDS011;5824;49.336;8.652;2023-04-24T18:51:42;3.30;;;2.37;;
11535;SDS011;5824;49.336;8.652;2023-04-24T18:54:08;3.30;;;2.73;;